TimeCDT,TemperatureF,Dew PointF,Humidity,Sea Level PressureIn,VisibilityMPH,Wind Direction,Wind SpeedMPH,Gust SpeedMPH,PrecipitationIn,Events,Conditions,WindDirDegrees,DateUTC
12:53 AM,73.0,60.1,64,29.89,10.0,SSW,12.7,20.7,N/A,,Clear,200,2013-07-05 05:53:00
1:53 AM,72.0,59.0,64,29.89,10.0,SSW,11.5,18.4,N/A,,Clear,200,2013-07-05 06:53:00
2:53 AM,71.1,59.0,66,29.90,10.0,SSW,11.5,-,N/A,,Scattered Clouds,210,2013-07-05 07:53:00
3:53 AM,70.0,59.0,68,29.90,10.0,SW,8.1,-,N/A,,Scattered Clouds,220,2013-07-05 08:53:00
4:53 AM,69.1,57.9,68,29.91,10.0,SSW,10.4,-,N/A,,Scattered Clouds,210,2013-07-05 09:53:00
5:53 AM,68.0,57.9,70,29.91,10.0,SW,6.9,-,N/A,,Clear,220,2013-07-05 10:53:00
6:53 AM,70.0,59.0,68,29.91,10.0,SSW,6.9,-,N/A,,Clear,210,2013-07-05 11:53:00
7:53 AM,73.0,60.1,64,29.92,10.0,SSW,12.7,17.3,N/A,,Clear,210,2013-07-05 12:53:00
8:53 AM,75.9,60.1,58,29.91,10.0,SW,12.7,18.4,N/A,,Clear,220,2013-07-05 13:53:00
9:53 AM,80.1,61.0,52,29.91,10.0,SSW,12.7,19.6,N/A,,Clear,210,2013-07-05 14:53:00
10:53 AM,82.0,60.1,47,29.90,10.0,South,16.1,21.9,N/A,,Clear,190,2013-07-05 15:53:00
11:53 AM,84.0,59.0,43,29.88,10.0,SW,16.1,25.3,N/A,,Clear,220,2013-07-05 16:53:00
12:53 PM,84.9,57.9,40,29.87,10.0,SSW,15.0,23.0,N/A,,Clear,200,2013-07-05 17:53:00
1:53 PM,86.0,57.0,37,29.85,10.0,SSW,16.1,26.5,N/A,,Clear,200,2013-07-05 18:53:00
2:53 PM,87.1,57.0,36,29.85,10.0,SSW,18.4,25.3,N/A,,Clear,200,2013-07-05 19:53:00
3:53 PM,87.1,57.9,37,29.83,10.0,South,10.4,21.9,N/A,,Clear,190,2013-07-05 20:53:00
4:53 PM,84.9,57.9,40,29.83,10.0,SSW,17.3,28.8,N/A,,Scattered Clouds,210,2013-07-05 21:53:00
5:53 PM,84.0,59.0,43,29.82,10.0,SSW,12.7,23.0,N/A,,Clear,200,2013-07-05 22:53:00
6:53 PM,82.0,60.1,47,29.82,10.0,SSW,9.2,-,N/A,,Partly Cloudy,200,2013-07-05 23:53:00
7:53 PM,81.0,59.0,47,29.83,10.0,SSW,8.1,-,N/A,,Scattered Clouds,200,2013-07-06 00:53:00
8:53 PM,79.0,60.1,52,29.82,10.0,SSW,9.2,-,N/A,,Clear,200,2013-07-06 01:53:00
9:53 PM,78.1,59.0,52,29.83,10.0,SSW,11.5,18.4,N/A,,Clear,200,2013-07-06 02:53:00
10:53 PM,77.0,57.9,52,29.82,10.0,SSW,10.4,-,N/A,,Clear,200,2013-07-06 03:53:00
11:53 PM,77.0,57.9,52,29.83,10.0,SSW,15.0,23.0,N/A,,Clear,210,2013-07-06 04:53:00